Time;durP1;ratioP1;P1;durP2;ratioP2;P2;SDS_P1;SDS_P2;PMS_P1;PMS_P2;Temp;Humidity;BMP_temperature;BMP_pressure;BME280_temperature;BME280_humidity;BME280_pressure;Samples;Min_cycle;Max_cycle;Signal;HPM_P1;HPM_P2
2023/12/19 00:00:19;;;;;;;20.67;9.70;;;3.60;99.90;;;;;;5114412;28;20023;-84
2023/12/19 00:02:45;;;;;;;19.93;9.33;;;3.60;99.90;;;;;;5096443;28;20024;-83
2023/12/19 00:05:11;;;;;;;20.90;9.40;;;3.60;99.90;;;;;;5096117;28;20011;-83
2023/12/19 00:07:37;;;;;;;19.77;9.80;;;3.50;99.90;;;;;;5096367;28;20054;-83
2023/12/19 00:10:03;;;;;;;20.63;9.30;;;3.50;99.90;;;;;;5095725;28;20490;-83
2023/12/19 00:12:28;;;;;;;18.37;10.17;;;3.40;99.90;;;;;;5114333;28;20028;-83
2023/12/19 00:14:54;;;;;;;17.37;9.30;;;3.40;99.90;;;;;;5095728;28;20084;-83
2023/12/19 00:17:20;;;;;;;19.57;8.97;;;3.40;99.90;;;;;;5096088;28;20036;-83
2023/12/19 00:19:46;;;;;;;19.40;9.67;;;3.40;99.90;;;;;;5096248;28;20107;-83
2023/12/19 00:22:11;;;;;;;19.60;10.17;;;3.50;99.90;;;;;;5095784;28;20095;-83
2023/12/19 00:24:40;;;;;;;19.67;10.00;;;3.40;99.90;;;;;;5114117;28;20024;-83
2023/12/19 00:27:05;;;;;;;20.47;9.50;;;3.40;99.90;;;;;;5095537;28;20409;-83
2023/12/19 00:29:31;;;;;;;20.07;9.43;;;3.40;99.90;;;;;;5114336;28;20107;-83
2023/12/19 00:31:57;;;;;;;19.40;9.90;;;3.40;99.90;;;;;;5095724;28;20024;-83
2023/12/19 00:34:22;;;;;;;19.87;9.50;;;3.40;99.90;;;;;;5113703;28;20027;-83
2023/12/19 00:36:48;;;;;;;21.73;9.77;;;3.30;99.90;;;;;;5096057;28;20024;-85
2023/12/19 00:39:13;;;;;;;19.47;9.93;;;3.30;99.90;;;;;;5095330;28;20065;-82
2023/12/19 00:41:39;;;;;;;19.47;10.53;;;3.40;99.90;;;;;;5113353;28;20058;-84
2023/12/19 00:44:05;;;;;;;15.97;9.20;;;3.30;99.90;;;;;;5095191;28;20087;-84
2023/12/19 00:46:30;;;;;;;18.03;8.97;;;3.40;99.90;;;;;;5096046;28;20114;-84
2023/12/19 00:48:56;;;;;;;20.87;9.97;;;3.40;99.90;;;;;;5095126;28;20043;-84
2023/12/19 00:51:22;;;;;;;19.60;10.07;;;3.30;99.90;;;;;;5095816;28;20020;-84
2023/12/19 00:53:47;;;;;;;21.23;9.67;;;3.30;99.90;;;;;;5099959;28;20024;-84
2023/12/19 00:56:13;;;;;;;18.17;9.47;;;3.30;99.90;;;;;;5099203;28;20030;-84
2023/12/19 00:58:39;;;;;;;19.90;9.40;;;3.30;99.90;;;;;;5099585;28;20452;-85
2023/12/19 01:01:06;;;;;;;22.23;10.23;;;3.30;99.90;;;;;;5099114;28;20440;-85
2023/12/19 01:03:32;;;;;;;21.27;9.90;;;3.20;99.90;;;;;;5099460;28;20042;-85
2023/12/19 01:06:00;;;;;;;21.63;10.37;;;3.20;99.90;;;;;;5099213;28;20104;-85
2023/12/19 01:08:26;;;;;;;21.50;10.33;;;3.20;99.90;;;;;;5099426;28;20024;-85
2023/12/19 01:10:52;;;;;;;23.17;10.30;;;3.10;99.90;;;;;;5099144;28;20111;-85
2023/12/19 01:13:18;;;;;;;23.80;10.10;;;3.10;99.90;;;;;;5099353;28;20111;-85
2023/12/19 01:15:44;;;;;;;20.30;10.00;;;3.10;99.90;;;;;;5099277;28;20452;-85
2023/12/19 01:18:10;;;;;;;19.47;10.43;;;3.10;99.90;;;;;;5098971;28;20034;-84
2023/12/19 01:20:35;;;;;;;20.47;9.60;;;3.10;99.90;;;;;;5099228;28;20402;-85
2023/12/19 01:23:01;;;;;;;22.87;10.17;;;3.10;99.90;;;;;;5116758;28;20062;-85
2023/12/19 01:25:26;;;;;;;20.30;10.13;;;3.10;99.90;;;;;;5117196;28;20051;-85
2023/12/19 01:27:52;;;;;;;16.67;8.97;;;3.00;99.90;;;;;;5116872;28;20019;-85
2023/12/19 01:30:18;;;;;;;20.10;9.57;;;3.00;99.90;;;;;;5117162;28;20061;-85
2023/12/19 01:32:43;;;;;;;20.57;9.87;;;3.00;99.90;;;;;;5116998;28;20024;-85
2023/12/19 01:35:09;;;;;;;18.73;9.33;;;3.00;99.90;;;;;;5098373;28;20110;-85
2023/12/19 01:37:35;;;;;;;20.53;9.20;;;2.90;99.90;;;;;;5098985;28;20019;-83
2023/12/19 01:40:00;;;;;;;15.90;8.60;;;2.90;99.90;;;;;;5098151;28;20049;-85
2023/12/19 01:42:26;;;;;;;15.23;8.43;;;2.90;99.90;;;;;;5098961;28;20459;-84
2023/12/19 01:45:04;;;;;;;17.97;9.60;;;2.90;99.90;;;;;;5116646;28;20038;-85
2023/12/19 01:47:30;;;;;;;17.80;8.73;;;2.90;99.90;;;;;;5098880;28;20070;-85
2023/12/19 01:49:55;;;;;;;20.30;9.57;;;2.80;99.90;;;;;;5098139;28;20471;-85
2023/12/19 01:52:21;;;;;;;15.07;8.90;;;2.80;99.90;;;;;;5098519;28;20019;-85
2023/12/19 01:54:47;;;;;;;17.97;8.53;;;2.90;99.90;;;;;;5098310;28;20024;-85
2023/12/19 01:57:13;;;;;;;20.53;9.80;;;2.80;99.90;;;;;;5097953;28;20074;-84
2023/12/19 01:59:39;;;;;;;18.10;9.07;;;2.80;99.90;;;;;;5098515;28;20051;-84
2023/12/19 02:02:05;;;;;;;18.80;9.27;;;2.80;99.90;;;;;;5097682;28;20383;-85
2023/12/19 02:04:30;;;;;;;20.83;9.23;;;2.80;99.90;;;;;;5098293;28;20364;-85
2023/12/19 02:06:56;;;;;;;19.63;9.67;;;2.80;99.90;;;;;;5097683;28;20023;-84
2023/12/19 02:09:22;;;;;;;19.77;9.40;;;2.80;99.90;;;;;;5098316;28;20028;-85
2023/12/19 02:11:47;;;;;;;19.17;9.23;;;2.80;99.90;;;;;;5098248;28;20521;-85
2023/12/19 02:14:13;;;;;;;20.17;9.90;;;2.80;99.90;;;;;;5097402;28;20024;-85
2023/12/19 02:16:39;;;;;;;20.43;9.33;;;2.80;99.90;;;;;;5097814;28;20024;-84
2023/12/19 02:19:06;;;;;;;22.73;8.97;;;2.80;99.90;;;;;;5115412;28;20018;-85
2023/12/19 02:21:31;;;;;;;20.70;10.13;;;2.70;99.90;;;;;;5097890;28;20050;-85
2023/12/19 02:23:58;;;;;;;19.20;9.70;;;2.70;99.90;;;;;;5097395;28;20016;-85
2023/12/19 02:26:24;;;;;;;17.80;9.30;;;2.70;99.90;;;;;;5097977;28;20024;-83
2023/12/19 02:28:52;;;;;;;22.23;9.87;;;2.70;99.90;;;;;;5115623;28;20460;-83
2023/12/19 02:31:21;;;;;;;17.10;8.60;;;2.70;99.90;;;;;;5097322;28;20024;-83
2023/12/19 02:33:46;;;;;;;22.13;9.63;;;2.60;99.90;;;;;;5097392;28;20016;-83
2023/12/19 02:36:12;;;;;;;19.10;8.83;;;2.60;99.90;;;;;;5097114;28;20026;-83
2023/12/19 02:38:38;;;;;;;20.90;10.30;;;2.60;99.90;;;;;;5098008;28;20023;-83
2023/12/19 02:41:04;;;;;;;17.73;8.87;;;2.60;99.90;;;;;;5096837;28;20044;-84
2023/12/19 02:43:30;;;;;;;18.70;9.13;;;2.60;99.90;;;;;;5097678;28;20024;-83
2023/12/19 02:45:55;;;;;;;16.10;8.60;;;2.50;99.90;;;;;;5097475;28;20020;-83
2023/12/19 02:48:21;;;;;;;20.30;9.07;;;2.50;99.90;;;;;;5096875;28;20030;-83
2023/12/19 02:50:46;;;;;;;19.47;8.87;;;2.50;99.90;;;;;;5097573;28;20023;-83
2023/12/19 02:53:12;;;;;;;19.00;8.83;;;2.50;99.90;;;;;;5096841;28;20019;-82
2023/12/19 02:55:38;;;;;;;16.43;8.70;;;2.50;99.90;;;;;;5097289;28;20140;-83
2023/12/19 02:58:03;;;;;;;14.57;8.03;;;2.50;99.90;;;;;;5114806;28;20478;-84
2023/12/19 03:00:29;;;;;;;15.40;7.67;;;2.50;99.90;;;;;;5114774;28;20019;-82
2023/12/19 03:02:58;;;;;;;17.67;8.80;;;2.60;99.90;;;;;;5097197;28;20076;-82
2023/12/19 03:05:24;;;;;;;15.73;8.13;;;2.60;99.90;;;;;;5114824;28;20107;-83
2023/12/19 03:07:50;;;;;;;14.50;7.70;;;2.50;99.90;;;;;;5114970;28;20106;-83
2023/12/19 03:10:16;;;;;;;15.53;8.77;;;2.60;99.90;;;;;;5096536;28;20079;-83
2023/12/19 03:12:41;;;;;;;13.80;7.63;;;2.50;99.90;;;;;;5097136;28;20126;-83
2023/12/19 03:15:07;;;;;;;15.93;7.63;;;2.50;99.90;;;;;;5095738;28;20024;-83
2023/12/19 03:17:33;;;;;;;16.77;8.73;;;2.50;99.90;;;;;;5096580;28;20484;-83
2023/12/19 03:19:59;;;;;;;18.00;7.90;;;2.40;99.90;;;;;;5114580;28;20042;-83
2023/12/19 03:22:24;;;;;;;16.63;8.23;;;2.40;99.90;;;;;;5096460;28;20027;-83
2023/12/19 03:24:50;;;;;;;15.30;8.10;;;2.40;99.90;;;;;;5096855;28;20027;-82
2023/12/19 03:27:16;;;;;;;14.67;7.60;;;2.40;99.90;;;;;;5096181;28;20118;-83
2023/12/19 03:29:42;;;;;;;17.60;8.57;;;2.40;99.90;;;;;;5096830;28;20027;-83
2023/12/19 03:32:08;;;;;;;18.97;7.93;;;2.30;99.90;;;;;;5096421;28;20068;-83
2023/12/19 03:34:35;;;;;;;16.87;8.00;;;2.30;99.90;;;;;;5096638;28;20023;-83
2023/12/19 03:37:01;;;;;;;15.87;7.87;;;2.30;99.90;;;;;;5096275;28;20122;-84
2023/12/19 03:39:26;;;;;;;14.63;7.73;;;2.30;99.90;;;;;;5096663;28;20059;-83
2023/12/19 03:41:52;;;;;;;13.37;7.07;;;2.30;99.90;;;;;;5096622;28;20225;-83
2023/12/19 03:44:18;;;;;;;14.07;7.50;;;2.20;99.90;;;;;;5096061;28;20019;-83
2023/12/19 03:46:43;;;;;;;13.37;7.67;;;2.30;99.90;;;;;;5114184;28;20106;-83
2023/12/19 03:49:09;;;;;;;12.37;6.63;;;2.20;99.90;;;;;;5096111;28;20068;-82
2023/12/19 03:51:34;;;;;;;17.97;7.83;;;2.20;99.90;;;;;;5114392;28;20023;-83
2023/12/19 03:54:00;;;;;;;16.77;7.60;;;2.20;99.90;;;;;;5096529;28;20413;-83
2023/12/19 03:56:26;;;;;;;14.30;7.20;;;2.20;99.90;;;;;;5095974;28;20031;-84
2023/12/19 03:58:51;;;;;;;13.03;6.93;;;2.10;99.90;;;;;;5096414;28;20031;-83
2023/12/19 04:01:20;;;;;;;16.93;7.50;;;2.20;99.90;;;;;;5114169;28;20145;-83
2023/12/19 04:03:46;;;;;;;14.53;6.63;;;2.10;99.90;;;;;;5114882;28;20505;-83
2023/12/19 04:06:12;;;;;;;12.53;7.27;;;2.10;99.90;;;;;;5095732;28;20020;-83
2023/12/19 04:08:38;;;;;;;14.60;7.47;;;2.10;99.90;;;;;;5096159;28;20024;-83
2023/12/19 04:11:03;;;;;;;13.43;6.93;;;2.10;99.90;;;;;;5113945;28;20092;-83
2023/12/19 04:13:29;;;;;;;11.63;6.60;;;2.10;99.90;;;;;;5114091;28;20020;-83
2023/12/19 04:15:54;;;;;;;16.07;7.30;;;2.00;99.90;;;;;;5096111;28;20050;-83
2023/12/19 04:18:20;;;;;;;14.17;6.77;;;2.00;99.90;;;;;;5095918;28;20024;-83
2023/12/19 04:20:46;;;;;;;13.77;6.77;;;2.00;99.90;;;;;;5114059;28;20132;-83
2023/12/19 04:23:12;;;;;;;14.17;7.07;;;2.00;99.90;;;;;;5095663;28;20019;-83
2023/12/19 04:25:37;;;;;;;11.47;6.40;;;2.00;99.90;;;;;;5096983;28;20062;-83
2023/12/19 04:28:03;;;;;;;14.37;7.63;;;1.90;99.90;;;;;;5118213;28;20059;-83
2023/12/19 04:30:29;;;;;;;14.03;6.70;;;1.90;99.90;;;;;;5100160;28;20024;-83
2023/12/19 04:32:54;;;;;;;14.17;7.17;;;1.90;99.90;;;;;;5099986;28;20444;-83
2023/12/19 04:35:20;;;;;;;14.37;7.20;;;1.90;99.90;;;;;;5099569;28;20023;-82
2023/12/19 04:37:46;;;;;;;12.87;7.10;;;1.90;99.90;;;;;;5099762;28;20042;-83
2023/12/19 04:40:12;;;;;;;18.97;7.47;;;1.90;99.90;;;;;;5099131;28;20047;-84
2023/12/19 04:42:38;;;;;;;14.07;6.87;;;1.90;99.90;;;;;;5117809;28;20066;-83
2023/12/19 04:45:05;;;;;;;13.43;6.63;;;1.90;99.90;;;;;;5099845;28;20024;-83
2023/12/19 04:47:30;;;;;;;14.43;6.30;;;1.90;99.90;;;;;;5099735;28;20024;-84
2023/12/19 04:49:56;;;;;;;11.90;6.03;;;1.90;99.90;;;;;;5099949;28;20035;-84
2023/12/19 04:52:22;;;;;;;11.23;6.00;;;1.90;99.90;;;;;;5099099;28;20065;-84
2023/12/19 04:54:47;;;;;;;14.43;6.50;;;1.90;99.90;;;;;;5099568;28;20069;-83
2023/12/19 04:57:13;;;;;;;10.80;5.90;;;1.90;99.90;;;;;;5099030;28;20081;-83
2023/12/19 04:59:39;;;;;;;9.27;5.60;;;1.90;99.90;;;;;;5099623;28;20046;-83
2023/12/19 05:02:04;;;;;;;12.93;6.40;;;1.80;99.90;;;;;;5099562;28;20106;-83
2023/12/19 05:04:30;;;;;;;13.77;6.80;;;1.80;99.90;;;;;;5099135;28;20016;-83
2023/12/19 05:06:55;;;;;;;14.83;6.87;;;1.80;99.90;;;;;;5099395;28;20031;-83
2023/12/19 05:09:21;;;;;;;10.87;6.47;;;1.80;99.90;;;;;;5098645;28;20034;-83
2023/12/19 05:11:47;;;;;;;12.93;6.37;;;1.80;99.90;;;;;;5117542;28;20106;-83
2023/12/19 05:14:12;;;;;;;12.07;6.63;;;1.80;99.90;;;;;;5099161;28;20365;-84
2023/12/19 05:16:38;;;;;;;13.63;6.20;;;1.80;99.90;;;;;;5099402;28;20030;-83
2023/12/19 05:19:06;;;;;;;13.03;5.63;;;1.70;99.90;;;;;;5117192;28;20440;-83
2023/12/19 05:21:38;;;;;;;12.43;6.33;;;1.70;99.90;;;;;;5098738;28;20024;-83
2023/12/19 05:24:05;;;;;;;11.53;6.17;;;1.70;99.90;;;;;;5099165;28;20024;-82
2023/12/19 05:26:30;;;;;;;11.77;5.97;;;1.80;99.90;;;;;;5098672;28;20024;-83
2023/12/19 05:28:56;;;;;;;10.50;5.97;;;1.70;99.90;;;;;;5117133;28;20035;-83
2023/12/19 05:31:22;;;;;;;9.77;5.53;;;1.70;99.90;;;;;;5098619;28;20016;-83
2023/12/19 05:33:47;;;;;;;16.03;6.43;;;1.70;99.90;;;;;;5098975;28;20020;-83
2023/12/19 05:36:14;;;;;;;12.27;6.53;;;1.70;99.90;;;;;;5116630;28;20098;-83
2023/12/19 05:38:39;;;;;;;12.10;5.93;;;1.70;99.90;;;;;;5098126;28;20016;-82
2023/12/19 05:41:05;;;;;;;12.93;6.10;;;1.70;99.90;;;;;;5098699;28;20044;-83
2023/12/19 05:43:31;;;;;;;11.87;6.30;;;1.70;99.90;;;;;;5098268;28;20032;-83
2023/12/19 05:45:57;;;;;;;12.50;6.50;;;1.70;99.90;;;;;;5098850;28;20019;-83
2023/12/19 05:48:22;;;;;;;15.03;7.07;;;1.80;99.90;;;;;;5098166;28;20020;-83
2023/12/19 05:50:49;;;;;;;12.47;6.00;;;1.70;99.90;;;;;;5098634;28;20038;-83
2023/12/19 05:53:14;;;;;;;13.13;6.50;;;1.70;99.90;;;;;;5115762;28;20452;-83
2023/12/19 05:55:40;;;;;;;15.20;6.93;;;1.70;99.90;;;;;;5098596;28;20152;-83
2023/12/19 05:58:06;;;;;;;12.53;6.17;;;1.80;99.90;;;;;;5116364;28;20030;-83
2023/12/19 06:00:32;;;;;;;12.17;6.50;;;1.80;99.90;;;;;;5097971;28;20092;-83
2023/12/19 06:02:57;;;;;;;14.77;6.40;;;1.80;99.90;;;;;;5098416;28;20043;-83
2023/12/19 06:05:24;;;;;;;16.13;6.53;;;1.80;99.90;;;;;;5115935;28;20030;-83
2023/12/19 06:07:49;;;;;;;10.27;5.23;;;1.80;99.90;;;;;;5098191;28;20026;-83
2023/12/19 06:10:15;;;;;;;12.93;6.17;;;1.80;99.90;;;;;;5115713;28;20384;-83
2023/12/19 06:12:41;;;;;;;13.60;5.97;;;1.80;99.90;;;;;;5098061;28;20035;-83
2023/12/19 06:15:12;;;;;;;13.60;6.53;;;1.80;99.90;;;;;;5116219;28;20038;-83
2023/12/19 06:17:46;;;;;;;9.43;4.35;;;1.80;99.90;;;;;;5098285;28;20081;-83
2023/12/19 06:20:12;;;;;;;13.20;6.17;;;1.70;99.90;;;;;;5097606;28;20049;-83
2023/12/19 06:22:38;;;;;;;15.37;6.30;;;1.80;99.90;;;;;;5115877;28;20020;-83
2023/12/19 06:25:05;;;;;;;11.10;5.90;;;1.80;99.90;;;;;;5098033;28;20027;-83
2023/12/19 06:27:32;;;;;;;12.63;6.33;;;1.80;99.90;;;;;;5097366;28;20023;-81
2023/12/19 06:29:57;;;;;;;12.20;5.90;;;1.80;99.90;;;;;;5115860;28;20031;-83
2023/12/19 06:32:23;;;;;;;13.57;5.60;;;1.80;99.90;;;;;;5096971;28;20023;-83
2023/12/19 06:34:48;;;;;;;13.87;6.30;;;1.80;99.90;;;;;;5090114;28;20072;-81
2023/12/19 06:37:14;;;;;;;11.90;5.73;;;1.80;99.90;;;;;;5097039;28;20022;-80
2023/12/19 06:39:39;;;;;;;12.10;5.73;;;1.70;99.90;;;;;;5096479;28;20020;-81
2023/12/19 06:42:05;;;;;;;14.33;6.50;;;1.80;99.90;;;;;;5096214;28;20043;-82
2023/12/19 06:44:31;;;;;;;12.03;5.83;;;1.70;99.90;;;;;;5096329;28;20031;-81
2023/12/19 06:46:57;;;;;;;11.53;5.67;;;1.70;99.90;;;;;;5097250;28;20024;-81
2023/12/19 06:49:24;;;;;;;11.63;5.37;;;1.70;99.90;;;;;;5114922;28;20027;-81
2023/12/19 06:51:50;;;;;;;12.07;5.53;;;1.70;99.90;;;;;;5097473;28;20100;-81
2023/12/19 06:54:16;;;;;;;14.90;6.03;;;1.60;99.90;;;;;;5097005;28;20402;-81
2023/12/19 06:56:42;;;;;;;12.67;6.47;;;1.70;99.90;;;;;;5097200;28;20027;-81
2023/12/19 06:59:08;;;;;;;16.20;6.07;;;1.60;99.90;;;;;;5097312;28;20367;-81
2023/12/19 07:01:35;;;;;;;12.00;6.50;;;1.60;99.90;;;;;;5114716;28;20070;-81
2023/12/19 07:04:00;;;;;;;11.70;5.60;;;1.60;99.90;;;;;;5096906;28;20020;-81
2023/12/19 07:06:26;;;;;;;10.47;5.47;;;1.50;99.90;;;;;;5096438;28;20030;-81
2023/12/19 07:08:52;;;;;;;11.97;5.33;;;1.50;99.90;;;;;;5115018;28;20073;-81
2023/12/19 07:11:19;;;;;;;11.03;5.00;;;1.50;99.90;;;;;;5096184;28;20027;-81
2023/12/19 07:13:45;;;;;;;12.03;5.77;;;1.50;99.90;;;;;;5096917;28;20028;-81
2023/12/19 07:16:17;;;;;;;11.77;6.00;;;1.50;99.90;;;;;;5096866;28;20020;-81
2023/12/19 07:18:46;;;;;;;12.63;6.30;;;1.50;99.90;;;;;;5096932;28;20106;-81
2023/12/19 07:21:20;;;;;;;12.73;6.10;;;1.40;99.90;;;;;;5096824;28;20106;-81
2023/12/19 07:23:46;;;;;;;11.47;5.77;;;1.40;99.90;;;;;;5096684;28;20091;-81
2023/12/19 07:26:21;;;;;;;12.37;5.43;;;1.40;99.90;;;;;;5114421;28;20440;-81
2023/12/19 07:28:48;;;;;;;11.13;5.37;;;1.40;99.90;;;;;;5096731;28;20042;-80
2023/12/19 07:31:24;;;;;;;14.77;6.47;;;1.40;99.90;;;;;;5114566;28;20035;-81
2023/12/19 07:33:53;;;;;;;11.60;5.87;;;1.30;99.90;;;;;;5096575;28;20023;-81
2023/12/19 07:36:18;;;;;;;12.13;6.47;;;1.30;99.90;;;;;;5096634;28;20444;-81
2023/12/19 07:38:44;;;;;;;13.27;5.80;;;1.30;99.90;;;;;;5114368;28;20073;-81
2023/12/19 07:41:09;;;;;;;14.00;6.17;;;1.30;99.90;;;;;;5096213;28;20379;-80
2023/12/19 07:43:35;;;;;;;13.60;6.20;;;1.30;99.90;;;;;;5095746;28;20038;-81
2023/12/19 07:46:03;;;;;;;13.40;5.97;;;1.30;99.90;;;;;;5096259;28;20020;-80
2023/12/19 07:48:28;;;;;;;14.50;6.33;;;1.30;99.90;;;;;;5114074;28;20112;-80
2023/12/19 07:50:54;;;;;;;12.60;6.10;;;1.30;99.90;;;;;;5096405;28;20420;-80
2023/12/19 07:53:20;;;;;;;14.47;6.00;;;1.30;99.90;;;;;;5095955;28;20022;-81
2023/12/19 07:55:48;;;;;;;13.87;6.60;;;1.30;99.90;;;;;;5096447;28;20061;-80
2023/12/19 07:58:13;;;;;;;13.40;6.50;;;1.30;99.90;;;;;;5096372;28;20027;-81
2023/12/19 08:00:39;;;;;;;14.43;6.53;;;1.30;99.90;;;;;;5113433;28;20459;-81
2023/12/19 08:03:05;;;;;;;14.87;6.37;;;1.30;99.90;;;;;;5096322;28;20372;-81
2023/12/19 08:05:31;;;;;;;12.50;6.50;;;1.30;99.90;;;;;;5095668;28;20020;-81
2023/12/19 08:07:57;;;;;;;15.13;6.20;;;1.30;99.90;;;;;;5096284;28;20031;-80
2023/12/19 08:10:23;;;;;;;12.93;6.10;;;1.40;99.90;;;;;;5113534;28;20084;-81
2023/12/19 08:12:48;;;;;;;13.07;6.47;;;1.30;99.90;;;;;;5096232;28;20475;-81
2023/12/19 08:15:14;;;;;;;14.93;6.50;;;1.40;99.90;;;;;;5096152;28;20028;-80
2023/12/19 08:17:40;;;;;;;13.03;6.27;;;1.40;99.90;;;;;;5095553;28;20027;-81
2023/12/19 08:20:07;;;;;;;14.90;6.73;;;1.40;99.90;;;;;;5114100;28;20019;-81
2023/12/19 08:22:33;;;;;;;14.17;6.83;;;1.40;99.90;;;;;;5095729;28;20054;-81
2023/12/19 08:24:58;;;;;;;15.33;6.17;;;1.50;99.90;;;;;;5096319;28;20391;-80
2023/12/19 08:27:28;;;;;;;11.77;6.23;;;1.50;99.90;;;;;;5095728;28;20027;-81
2023/12/19 08:29:53;;;;;;;16.40;7.30;;;1.50;99.90;;;;;;5095990;28;20032;-81
2023/12/19 08:32:19;;;;;;;12.07;6.97;;;1.50;99.90;;;;;;5113608;28;20483;-81
2023/12/19 08:34:46;;;;;;;13.40;6.13;;;1.60;99.90;;;;;;5096214;28;20019;-81
2023/12/19 08:37:11;;;;;;;14.00;6.60;;;1.60;99.90;;;;;;5096019;28;20024;-81
2023/12/19 08:39:37;;;;;;;17.60;7.40;;;1.60;99.90;;;;;;5095294;28;20118;-81
2023/12/19 08:42:03;;;;;;;14.17;6.53;;;1.60;99.90;;;;;;5095504;28;20067;-81
2023/12/19 08:44:29;;;;;;;12.37;6.13;;;1.60;99.90;;;;;;5095346;28;20030;-81
2023/12/19 08:46:55;;;;;;;14.63;6.73;;;1.60;99.90;;;;;;5113667;28;20338;-81
2023/12/19 08:49:21;;;;;;;17.00;6.10;;;1.70;99.90;;;;;;5095416;28;20453;-81
2023/12/19 08:51:49;;;;;;;15.50;6.83;;;1.70;99.90;;;;;;5095836;28;20037;-81
2023/12/19 08:54:15;;;;;;;15.17;6.73;;;1.70;99.90;;;;;;5095870;28;20015;-81
2023/12/19 08:56:42;;;;;;;14.07;6.43;;;1.70;99.90;;;;;;5095337;28;20406;-81
2023/12/19 08:59:07;;;;;;;16.23;6.27;;;1.70;99.90;;;;;;5095929;28;20024;-81
2023/12/19 09:01:33;;;;;;;13.80;6.73;;;1.70;99.90;;;;;;5095350;28;20023;-81
2023/12/19 09:04:00;;;;;;;13.53;6.43;;;1.80;99.90;;;;;;5095764;28;20104;-81
2023/12/19 09:06:26;;;;;;;14.80;6.77;;;1.80;99.90;;;;;;5113164;28;20023;-81
2023/12/19 09:08:51;;;;;;;15.90;7.57;;;1.90;99.90;;;;;;5095589;28;20027;-81
2023/12/19 09:11:17;;;;;;;13.30;6.67;;;1.90;99.90;;;;;;5095538;28;20055;-80
2023/12/19 09:13:43;;;;;;;15.30;6.60;;;1.90;99.90;;;;;;5097673;28;20058;-81
2023/12/19 09:16:09;;;;;;;13.63;6.70;;;2.00;99.90;;;;;;5117533;28;20020;-80
2023/12/19 09:18:34;;;;;;;17.80;6.57;;;2.00;99.90;;;;;;5098871;28;20042;-81
2023/12/19 09:21:00;;;;;;;14.80;6.73;;;2.00;99.90;;;;;;5099186;28;20016;-80
2023/12/19 09:23:26;;;;;;;15.27;6.47;;;2.10;99.90;;;;;;5116576;28;20023;-81
2023/12/19 09:25:51;;;;;;;14.07;5.90;;;2.10;99.90;;;;;;5098910;28;20452;-81
2023/12/19 09:28:17;;;;;;;12.50;6.43;;;2.20;99.90;;;;;;5098988;28;20027;-81
2023/12/19 09:30:42;;;;;;;13.33;5.90;;;2.20;99.90;;;;;;5098466;28;20027;-81
2023/12/19 09:33:08;;;;;;;13.63;6.87;;;2.30;99.90;;;;;;5098852;28;20452;-81
2023/12/19 09:35:34;;;;;;;16.87;8.00;;;2.30;99.90;;;;;;5116530;28;20051;-81
2023/12/19 09:38:01;;;;;;;14.73;6.77;;;2.40;99.90;;;;;;5098720;28;20031;-79
2023/12/19 09:40:29;;;;;;;13.13;6.33;;;2.40;99.90;;;;;;5116143;28;20047;-80
2023/12/19 09:42:59;;;;;;;15.10;6.50;;;2.50;99.90;;;;;;5098735;28;20023;-79
2023/12/19 09:45:25;;;;;;;16.43;6.37;;;2.40;99.90;;;;;;5098139;28;20019;-79
2023/12/19 09:48:00;;;;;;;13.83;6.17;;;2.50;99.90;;;;;;5116361;28;20034;-80
2023/12/19 09:50:27;;;;;;;13.17;5.67;;;2.50;99.90;;;;;;5097839;28;20027;-80
2023/12/19 09:52:55;;;;;;;14.53;6.40;;;2.50;99.90;;;;;;5098640;28;20023;-80
2023/12/19 09:55:21;;;;;;;13.53;6.30;;;2.60;99.90;;;;;;5098345;28;20033;-80
2023/12/19 09:57:50;;;;;;;14.17;6.17;;;2.60;99.90;;;;;;5097789;28;20028;-80
2023/12/19 10:00:18;;;;;;;12.57;5.67;;;2.60;99.90;;;;;;5097938;28;20047;-78
2023/12/19 10:02:44;;;;;;;13.10;6.00;;;2.60;99.90;;;;;;5097996;28;20100;-80
2023/12/19 10:05:10;;;;;;;13.00;5.77;;;2.70;99.90;;;;;;5116341;28;20020;-81
2023/12/19 10:07:36;;;;;;;10.77;5.40;;;2.70;99.90;;;;;;5097732;28;20111;-81
2023/12/19 10:10:03;;;;;;;11.70;5.77;;;2.70;99.90;;;;;;5098123;28;20460;-81
2023/12/19 10:12:29;;;;;;;10.17;4.80;;;2.80;99.90;;;;;;5115699;28;20020;-82
2023/12/19 10:15:15;;;;;;;10.30;5.93;;;2.80;99.90;;;;;;5098283;28;20020;-81
2023/12/19 10:18:10;;;;;;;9.03;4.67;;;2.80;99.90;;;;;;5097365;28;20034;-81
2023/12/19 10:20:37;;;;;;;9.50;4.37;;;2.80;99.90;;;;;;5097516;28;20085;-81
2023/12/19 10:23:04;;;;;;;10.93;5.43;;;2.90;99.90;;;;;;5115789;28;20015;-81
2023/12/19 10:25:33;;;;;;;10.63;4.57;;;2.90;99.90;;;;;;5097443;28;20046;-81
2023/12/19 10:28:09;;;;;;;8.97;4.13;;;3.00;99.90;;;;;;5098175;28;20372;-81
2023/12/19 10:30:38;;;;;;;8.83;4.47;;;3.00;99.90;;;;;;5114908;28;20476;-81
2023/12/19 10:33:04;;;;;;;10.40;3.93;;;3.00;99.90;;;;;;5115835;28;20028;-81
2023/12/19 10:35:40;;;;;;;7.47;3.57;;;3.10;99.90;;;;;;5097449;28;20019;-82
2023/12/19 10:38:06;;;;;;;10.50;4.17;;;3.20;99.90;;;;;;5115640;28;20103;-80
2023/12/19 10:40:32;;;;;;;8.90;4.00;;;3.30;99.90;;;;;;5096837;28;20047;-81
2023/12/19 10:43:01;;;;;;;7.57;3.53;;;3.50;99.90;;;;;;5097653;28;20028;-80
2023/12/19 10:45:27;;;;;;;7.80;4.03;;;3.60;99.90;;;;;;5097064;28;20023;-83
2023/12/19 10:47:53;;;;;;;7.43;3.87;;;3.70;99.90;;;;;;5097404;28;20028;-81
2023/12/19 10:50:19;;;;;;;6.23;3.07;;;3.80;99.90;;;;;;5115337;28;20030;-81
2023/12/19 10:52:49;;;;;;;7.10;3.63;;;3.90;99.90;;;;;;5097178;28;20107;-81
2023/12/19 10:55:21;;;;;;;7.10;3.00;;;4.00;99.90;;;;;;5097292;28;20016;-81
2023/12/19 10:57:49;;;;;;;5.83;3.13;;;4.00;99.90;;;;;;5096825;28;20460;-81
2023/12/19 11:00:22;;;;;;;5.13;3.10;;;4.00;99.90;;;;;;5097100;28;20016;-80
2023/12/19 11:03:27;;;;;;;5.93;2.73;;;4.10;99.90;;;;;;5097041;28;20047;-81
2023/12/19 11:05:55;;;;;;;4.97;2.80;;;4.10;99.90;;;;;;5092816;28;20151;-81
2023/12/19 11:08:22;;;;;;;6.30;2.47;;;4.10;99.90;;;;;;5096992;28;20027;-81
2023/12/19 11:11:11;;;;;;;5.80;2.70;;;4.10;99.90;;;;;;5096756;28;20181;-81
2023/12/19 11:13:37;;;;;;;5.20;2.63;;;4.20;99.90;;;;;;5096798;28;20028;-81
2023/12/19 11:16:15;;;;;;;4.77;2.40;;;4.20;99.90;;;;;;5115075;28;20020;-81
2023/12/19 11:19:08;;;;;;;4.77;2.30;;;4.20;99.90;;;;;;5096324;28;20027;-81
2023/12/19 11:21:46;;;;;;;5.72;2.45;;;4.30;99.90;;;;;;5096446;28;20027;-81
2023/12/19 11:24:21;;;;;;;4.67;2.23;;;4.30;99.90;;;;;;5096871;28;20019;-81
2023/12/19 11:26:55;;;;;;;4.87;2.30;;;4.50;99.90;;;;;;5114192;28;20020;-81
2023/12/19 11:29:46;;;;;;;3.20;2.20;;;4.50;99.90;;;;;;5096846;28;20085;-81
2023/12/19 11:32:27;;;;;;;3.37;2.03;;;4.60;99.90;;;;;;5114719;28;20035;-81
2023/12/19 11:35:13;;;;;;;4.13;2.57;;;4.60;99.90;;;;;;5095729;28;20019;-81
2023/12/19 11:37:46;;;;;;;4.67;2.60;;;4.60;99.90;;;;;;5113878;28;20046;-81
2023/12/19 11:40:50;;;;;;;3.40;2.00;;;4.60;99.90;;;;;;5114625;28;20036;-81
2023/12/19 11:43:27;;;;;;;3.30;1.97;;;4.60;99.90;;;;;;4995920;28;20037;-81
2023/12/19 11:45:54;;;;;;;3.93;2.23;;;4.60;99.90;;;;;;5103402;28;20080;-81
2023/12/19 11:48:49;;;;;;;5.40;2.80;;;4.60;99.90;;;;;;5096472;28;20019;-82
2023/12/19 11:51:43;;;;;;;4.87;2.40;;;4.60;99.90;;;;;;5096610;28;20468;-81
2023/12/19 11:54:15;;;;;;;4.10;1.93;;;4.60;99.90;;;;;;5096367;28;20011;-81
2023/12/19 11:56:42;;;;;;;3.45;1.88;;;4.70;99.90;;;;;;5113887;28;20026;-81
2023/12/19 11:59:08;;;;;;;5.20;2.73;;;4.70;99.90;;;;;;5096507;28;20514;-81
2023/12/19 12:01:39;;;;;;;5.87;2.90;;;4.80;99.90;;;;;;5095912;28;20031;-82
2023/12/19 12:04:10;;;;;;;3.50;2.37;;;4.80;99.90;;;;;;5096406;28;20360;-81
2023/12/19 12:06:37;;;;;;;6.43;2.97;;;4.90;99.90;;;;;;5095846;28;20056;-82
2023/12/19 12:09:05;;;;;;;5.03;2.30;;;4.90;99.90;;;;;;5096053;28;20072;-81
2023/12/19 12:11:47;;;;;;;4.10;2.10;;;4.90;99.90;;;;;;5095851;28;20133;-82
2023/12/19 12:14:14;;;;;;;4.43;2.30;;;4.90;99.90;;;;;;5096105;28;20023;-81
2023/12/19 12:16:41;;;;;;;3.40;2.00;;;4.90;99.90;;;;;;5113876;28;20020;-82
2023/12/19 12:19:16;;;;;;;2.80;1.80;;;4.90;99.90;;;;;;5114197;28;20015;-81
2023/12/19 12:21:45;;;;;;;3.27;1.93;;;4.90;99.90;;;;;;5113567;28;20011;-81
2023/12/19 12:24:17;;;;;;;5.53;2.13;;;4.90;99.90;;;;;;5096342;28;20406;-81
2023/12/19 12:26:43;;;;;;;2.97;1.90;;;5.00;99.90;;;;;;5095572;28;20364;-81
2023/12/19 12:29:08;;;;;;;3.90;2.23;;;5.00;99.90;;;;;;5095946;28;20076;-81
2023/12/19 12:31:35;;;;;;;3.40;2.13;;;5.00;99.90;;;;;;5095616;28;20391;-81
2023/12/19 12:34:01;;;;;;;4.30;2.00;;;5.00;99.90;;;;;;5113601;28;20027;-82
2023/12/19 12:36:27;;;;;;;3.33;1.90;;;5.00;99.90;;;;;;5096104;28;20114;-81
2023/12/19 12:38:56;;;;;;;2.97;1.90;;;5.00;99.90;;;;;;5095444;28;20279;-81
2023/12/19 12:41:22;;;;;;;1.90;1.60;;;5.10;99.90;;;;;;5095523;28;20040;-81
2023/12/19 12:43:51;;;;;;;3.20;2.00;;;5.00;99.90;;;;;;5095363;28;20049;-81
2023/12/19 12:46:24;;;;;;;3.73;1.93;;;5.00;99.90;;;;;;5114029;28;20019;-81
2023/12/19 12:48:53;;;;;;;3.20;2.20;;;4.90;99.90;;;;;;5099202;28;20059;-80